Goodland, KS (67735)

12:49 PM MDT on July 28, 2014 (GMT -0600)
City of Gld Backyard Station (KKSGOODL6) Elev 3711 ft | 39.34 °N, 101.71 °W | Change Station

Current weather conditions updated 4 minutes ago

Clear
Clear
80.6 °F
Feels Like 81 °F
N
7.3
Wind Variable Wind from South

Today is forecast to be Much Cooler than yesterday.

Today
High -- | Low -- °F
--% Chance of Precip.
Yesterday
High -- | Low -- °F
Precip. -- in
5:43 AM 8:02 PM
Waxing Crescent, 3% visible
Pressure 30.28 in
Visibility 10.0 miles
Clouds Clear
Heat Index 81 °F
Dew Point 57 °F
Humidity 44%
Rainfall 0.00 in
Snow Depth Not available.
UV 12 out of 12
Pollen 6.80 out of 12
Air Quality Not available.
Flu Activity Not available.
METAR KSYF 281835Z AUTO 18015G19KT 10SM CLR 29/09 A3028 RMK AO2 T02910086

More Conditions Fewer Conditions

Pressure 30.28 in
Visibility 10.0 miles
Clouds Clear
Heat Index 81 °F
Dew Point 57 °F
Humidity 44%
Rainfall 0.00 in
Snow Depth Not available.
UV 12 out of 12
Pollen 6.80 out of 12
Air Quality Not available.
Flu Activity Not available.
METAR KSYF 281835Z AUTO 18015G19KT 10SM CLR 29/09 A3028 RMK AO2 T02910086

More Conditions Fewer Conditions

10-Day Weather Forecast

Almanac

Astronomy

Jul. 28, 2014 Rise Set
Actual Time 5:43 AM MDT 8:02 PM MDT
Civil Twilight 5:12 AM MDT 8:33 PM MDT
Nautical Twilight 4:35 AM MDT 9:10 PM MDT
Astronomical Twilight 3:54 AM MDT 9:51 PM MDT
Moon 7:25 AM MDT 8:46 PM MDT
Length of Visible Light 15h 20m
Length of Day
14h 19m
Tomorrow will be 1m 50s shorter.
Waxing Crescent, 3% of the Moon is Illuminated
Today
Waxing Crescent
Aug 3
First Quarter
Aug 10
Full
Aug 17
Last Quarter
Aug 25
New

Today's Extremes

State Highs State Lows

Community

WunderPhotos

Upload Photos

1,738,433 photos uploaded!

Nearby

Snow Depth

Station Depth Elevation
No new snow has been reported.

Earthquake Activity

City Distance Mag. Time & Date
No recent earthquake activity has been reported nearby.
Minimum magnitude displayed is 2.5.

Coastal Water Temperatures

Place Temperature
No Stations Reporting

Nearby Weather Stations

Station Location Temp. Heat Index Dew Point Humidity Wind Precip. Elev Updated Type
City of Gld Backyard Station, Goodland, KS 80.6 °F 81 °F 57 °F 44% South  at  7.3 mph - / hr 3711 ft 12:45 PM MDT Normal
Beaver Creek Weather, Goodland, KS 84.0 °F 83 °F 56 °F 39% South  at  24.0 mph 0.00 in / hr 3450 ft 12:49 PM MDT Rapid Fire
Leonard Farms, Goodland, KS 80.4 °F 80 °F 52 °F 38% SSE  at  26.4 mph 0.00 in / hr 3799 ft 12:49 PM MDT Rapid Fire

Show More Stations Show Fewer Stations